createdAt,value
2019-05-06T00:02:06.716Z,55.23
2019-05-06T00:04:34.105Z,55.12
2019-05-06T00:07:00.713Z,55.71
2019-05-06T00:09:27.077Z,55.13
2019-05-06T00:11:54.389Z,54.60
2019-05-06T00:14:23.546Z,54.77
2019-05-06T00:16:50.837Z,53.87
2019-05-06T00:19:17.213Z,53.57
2019-05-06T00:21:44.361Z,53.07
2019-05-06T00:24:10.914Z,54.23
2019-05-06T00:26:40.108Z,54.35
2019-05-06T00:29:11.260Z,53.74
2019-05-06T00:31:37.592Z,52.63
2019-05-06T00:34:04.372Z,53.01
2019-05-06T00:36:30.911Z,53.00
2019-05-06T00:38:59.532Z,52.67
2019-05-06T00:41:27.761Z,52.82
2019-05-06T00:43:54.562Z,53.10
2019-05-06T00:46:21.231Z,54.06
2019-05-06T00:48:47.566Z,53.97
2019-05-06T00:51:13.928Z,53.97
2019-05-06T00:53:45.320Z,53.88
2019-05-06T00:56:13.542Z,54.11
2019-05-06T00:58:39.901Z,53.59
2019-05-06T01:01:06.290Z,53.59
2019-05-06T01:03:34.630Z,53.24
2019-05-06T01:06:00.853Z,53.86
2019-05-06T01:08:27.189Z,53.64
2019-05-06T01:10:54.626Z,53.63
2019-05-06T01:13:39.952Z,53.43
2019-05-06T01:16:10.149Z,52.76
2019-05-06T01:18:36.481Z,52.45
2019-05-06T01:21:08.956Z,52.84
2019-05-06T01:23:35.444Z,52.59
2019-05-06T01:26:01.782Z,53.31
2019-05-06T01:28:29.107Z,53.63
2019-05-06T01:30:55.458Z,54.01
2019-05-06T01:33:23.738Z,53.92
2019-05-06T01:35:50.093Z,54.24
2019-05-06T01:38:27.302Z,54.79
2019-05-06T01:40:59.353Z,55.25
2019-05-06T01:43:30.951Z,55.61
2019-05-06T01:45:57.765Z,55.41
2019-05-06T01:48:44.320Z,54.58
2019-05-06T01:51:10.809Z,54.60
2019-05-06T01:53:37.112Z,55.55
2019-05-06T01:56:03.697Z,55.35
2019-05-06T01:58:30.379Z,54.77
2019-05-06T02:00:57.160Z,55.57
2019-05-06T02:03:24.233Z,56.28
2019-05-06T02:05:50.660Z,56.71
2019-05-06T02:08:17.013Z,57.42
2019-05-06T02:10:43.639Z,58.35
2019-05-06T02:13:09.980Z,58.38
2019-05-06T02:15:36.310Z,59.28
2019-05-06T02:18:04.106Z,59.87
2019-05-06T02:20:31.137Z,60.27
2019-05-06T02:22:59.416Z,60.77
2019-05-06T02:25:30.542Z,61.20
2019-05-06T02:27:56.922Z,61.37
2019-05-06T02:30:40.469Z,61.04
2019-05-06T02:33:15.495Z,61.78
2019-05-06T02:35:46.427Z,62.47
2019-05-06T02:38:25.821Z,60.89
2019-05-06T02:40:53.543Z,61.80
2019-05-06T02:43:19.173Z,62.74
2019-05-06T02:45:45.584Z,61.44
2019-05-06T02:48:14.085Z,60.85
2019-05-06T02:50:43.241Z,60.97
2019-05-06T02:53:09.580Z,61.04
2019-05-06T02:55:36.397Z,61.41
2019-05-06T02:58:02.968Z,62.36
2019-05-06T03:00:29.418Z,62.01
2019-05-06T03:02:55.745Z,62.65
2019-05-06T03:05:23.719Z,62.72
2019-05-06T03:07:50.363Z,62.69
2019-05-06T03:10:17.542Z,63.49
2019-05-06T03:12:43.925Z,63.97
2019-05-06T03:15:16.180Z,64.17
2019-05-06T03:17:39.675Z,64.38
2019-05-06T03:20:08.105Z,64.77
2019-05-06T03:22:37.316Z,64.83
2019-05-06T03:25:13.406Z,64.85
2019-05-06T03:27:38.704Z,65.01
2019-05-06T03:30:05.837Z,64.91
2019-05-06T03:32:37.587Z,65.53
2019-05-06T03:35:23.035Z,65.09
2019-05-06T03:37:29.256Z,64.93
2019-05-06T03:39:55.628Z,65.33
2019-05-06T03:42:23.167Z,65.30
2019-05-06T03:44:53.318Z,65.62
2019-05-06T03:47:34.430Z,65.54
2019-05-06T03:50:00.316Z,65.67
2019-05-06T03:52:28.440Z,65.93
2019-05-06T03:54:57.054Z,65.72
2019-05-06T03:57:26.577Z,65.45
2019-05-06T03:59:53.564Z,65.10
2019-05-06T04:02:20.176Z,64.93
2019-05-06T04:04:46.541Z,65.18
2019-05-06T04:07:14.058Z,65.38
2019-05-06T04:09:43.935Z,64.96
2019-05-06T04:12:09.161Z,64.26
2019-05-06T04:14:35.470Z,63.61
2019-05-06T04:17:04.186Z,63.18
2019-05-06T04:19:33.470Z,63.06
2019-05-06T04:22:03.689Z,62.43
2019-05-06T04:24:33.711Z,61.42
2019-05-06T04:27:43.060Z,60.90
2019-05-06T04:30:17.839Z,60.51
2019-05-06T04:32:53.215Z,60.84
2019-05-06T04:35:22.974Z,60.29
2019-05-06T04:37:49.822Z,60.32
2019-05-06T04:40:17.052Z,60.18
2019-05-06T04:42:44.728Z,60.05
2019-05-06T04:45:13.552Z,60.18
2019-05-06T04:47:39.705Z,59.68
2019-05-06T04:50:07.364Z,59.08
2019-05-06T04:52:34.581Z,59.23
2019-05-06T04:55:03.356Z,59.18
2019-05-06T04:57:33.354Z,58.58
2019-05-06T04:59:58.462Z,58.34
2019-05-06T05:02:26.296Z,58.22
2019-05-06T05:04:53.231Z,57.61
2019-05-06T05:07:22.312Z,56.97
2019-05-06T05:09:48.119Z,56.27
2019-05-06T05:12:19.100Z,55.89
2019-05-06T05:15:03.259Z,56.03
2019-05-06T05:17:33.103Z,55.77
2019-05-06T05:20:02.066Z,55.47
2019-05-06T05:22:28.482Z,55.12
2019-05-06T05:24:54.834Z,54.60
2019-05-06T05:27:21.941Z,54.35
2019-05-06T05:29:49.486Z,54.26
2019-05-06T05:32:15.921Z,54.84
2019-05-06T05:34:43.571Z,54.69
2019-05-06T05:37:12.087Z,54.34
2019-05-06T05:39:38.489Z,54.57
2019-05-06T05:42:09.758Z,53.80
2019-05-06T05:44:37.991Z,52.61
2019-05-06T05:47:04.443Z,53.08
2019-05-06T05:49:33.379Z,53.95
2019-05-06T05:51:59.846Z,53.58
2019-05-06T05:54:26.367Z,52.53
2019-05-06T05:56:52.996Z,52.59
2019-05-06T05:59:19.792Z,51.48
2019-05-06T06:01:46.165Z,51.19
2019-05-06T06:04:13.084Z,52.92
2019-05-06T06:06:39.840Z,54.37
2019-05-06T06:09:06.685Z,54.31
2019-05-06T06:11:41.982Z,53.44
2019-05-06T06:14:28.810Z,53.14
2019-05-06T06:17:02.019Z,52.72
2019-05-06T06:19:45.685Z,53.09
2019-05-06T06:22:16.830Z,53.44
2019-05-06T06:24:43.342Z,53.39
2019-05-06T06:27:12.544Z,55.17
2019-05-06T06:29:41.711Z,55.32
2019-05-06T06:32:18.943Z,54.55
2019-05-06T06:34:45.278Z,54.37
2019-05-06T06:37:33.209Z,51.33
2019-05-06T06:40:02.569Z,51.50
2019-05-06T06:42:29.176Z,51.32
2019-05-06T06:44:55.599Z,50.58
2019-05-06T06:47:22.581Z,50.36
2019-05-06T06:49:49.259Z,50.26
2019-05-06T06:52:16.695Z,51.31
2019-05-06T06:54:43.819Z,51.16
2019-05-06T06:57:15.062Z,49.90
2019-05-06T06:59:46.473Z,50.06
2019-05-06T07:02:15.088Z,50.77
2019-05-06T07:04:43.443Z,50.86
2019-05-06T07:07:12.765Z,50.23
2019-05-06T07:09:38.631Z,49.37
2019-05-06T07:12:05.002Z,48.16
2019-05-06T07:14:32.643Z,47.54
2019-05-06T07:17:02.425Z,46.48
2019-05-06T07:19:33.474Z,47.62
2019-05-06T07:21:59.856Z,48.39
2019-05-06T07:24:26.195Z,47.35
2019-05-06T07:26:54.732Z,48.20
2019-05-06T07:29:24.272Z,48.98
2019-05-06T07:31:49.337Z,48.04
2019-05-06T07:34:15.799Z,48.49
2019-05-06T07:36:43.082Z,48.83
2019-05-06T07:39:09.604Z,48.25
2019-05-06T07:41:47.539Z,46.69
2019-05-06T07:44:27.327Z,46.38
2019-05-06T07:47:15.556Z,44.84
2019-05-06T07:49:43.245Z,42.57
2019-05-06T07:52:12.213Z,43.34
2019-05-06T07:54:38.133Z,43.44
2019-05-06T07:57:04.451Z,42.42
2019-05-06T07:59:33.262Z,43.27
2019-05-06T08:01:59.012Z,41.29
2019-05-06T08:04:25.345Z,42.29
2019-05-06T08:06:52.302Z,42.15
2019-05-06T08:09:19.027Z,42.11
2019-05-06T08:11:45.366Z,41.55
2019-05-06T08:14:13.047Z,40.66
2019-05-06T08:16:44.233Z,39.90
2019-05-06T08:19:11.930Z,38.69
2019-05-06T08:21:40.176Z,38.70
2019-05-06T08:24:06.511Z,38.39
2019-05-06T08:26:33.136Z,38.07
2019-05-06T08:28:59.477Z,37.69
2019-05-06T08:31:25.800Z,37.25
2019-05-06T08:33:53.283Z,36.63
2019-05-06T08:36:22.556Z,36.91
2019-05-06T08:38:55.652Z,36.53
2019-05-06T08:41:22.753Z,36.33
2019-05-06T08:43:49.241Z,35.09
2019-05-06T08:46:15.591Z,33.45
2019-05-06T08:48:42.838Z,32.04
2019-05-06T08:51:13.072Z,34.28
2019-05-06T08:53:42.444Z,34.34
2019-05-06T08:56:12.624Z,36.62
2019-05-06T08:58:45.622Z,37.72
2019-05-06T09:01:32.508Z,37.51
2019-05-06T09:04:08.691Z,35.18
2019-05-06T09:06:30.632Z,34.89
2019-05-06T09:08:57.004Z,32.76
2019-05-06T09:11:25.909Z,34.71
2019-05-06T09:13:52.289Z,36.78
2019-05-06T09:16:18.657Z,36.90
2019-05-06T09:18:44.950Z,37.06
2019-05-06T09:21:12.293Z,36.78
2019-05-06T09:23:39.264Z,36.55
2019-05-06T09:26:07.558Z,35.72
2019-05-06T09:28:35.844Z,35.05
2019-05-06T09:31:09.581Z,35.16
2019-05-06T09:33:49.452Z,35.40
2019-05-06T09:36:16.167Z,35.24
2019-05-06T09:38:42.604Z,36.47
2019-05-06T09:41:09.005Z,37.16
2019-05-06T09:43:35.351Z,37.05
2019-05-06T09:46:02.307Z,37.61
2019-05-06T09:48:33.027Z,37.43
2019-05-06T09:50:59.076Z,36.55
2019-05-06T09:53:27.406Z,36.06
2019-05-06T09:56:03.351Z,35.27
2019-05-06T09:58:32.325Z,34.51
2019-05-06T10:01:02.515Z,34.56
2019-05-06T10:03:28.948Z,34.36
2019-05-06T10:05:55.359Z,34.58
2019-05-06T10:08:22.776Z,35.63
2019-05-06T10:10:58.650Z,37.40
2019-05-06T10:13:17.470Z,36.05
2019-05-06T10:15:43.977Z,36.86
2019-05-06T10:18:13.402Z,37.27
2019-05-06T10:20:43.478Z,37.16
2019-05-06T10:23:11.817Z,37.39
2019-05-06T10:25:38.360Z,38.38
2019-05-06T10:28:25.165Z,37.05
2019-05-06T10:30:51.549Z,36.55
2019-05-06T10:33:22.439Z,36.26
2019-05-06T10:35:48.772Z,36.23
2019-05-06T10:38:36.131Z,36.24
2019-05-06T10:41:12.879Z,34.74
2019-05-06T10:43:56.144Z,35.36
2019-05-06T10:46:22.721Z,37.21
2019-05-06T10:48:49.017Z,36.92
2019-05-06T10:51:17.291Z,36.91
2019-05-06T10:53:44.713Z,35.79
2019-05-06T10:56:25.949Z,36.74
2019-05-06T10:58:52.758Z,35.77
2019-05-06T11:01:23.127Z,34.97
2019-05-06T11:03:49.527Z,35.60
2019-05-06T11:06:16.057Z,35.39
2019-05-06T11:08:42.461Z,35.70
2019-05-06T11:11:15.430Z,34.14
2019-05-06T11:13:37.445Z,34.38
2019-05-06T11:16:03.752Z,33.69
2019-05-06T11:18:30.102Z,33.34
2019-05-06T11:20:56.577Z,32.71
2019-05-06T11:23:23.173Z,33.45
2019-05-06T11:25:49.485Z,31.37
2019-05-06T11:28:35.293Z,33.80
2019-05-06T11:31:03.865Z,34.08
2019-05-06T11:33:44.165Z,34.57
2019-05-06T11:36:15.265Z,35.74
2019-05-06T11:38:43.191Z,35.61
2019-05-06T11:41:09.803Z,33.23
2019-05-06T11:43:36.227Z,33.83
2019-05-06T11:46:02.713Z,32.60
2019-05-06T11:48:29.239Z,31.06
2019-05-06T11:50:57.456Z,31.36
2019-05-06T11:53:23.787Z,30.19
2019-05-06T11:55:54.419Z,31.35
2019-05-06T11:58:22.376Z,31.70
2019-05-06T12:00:48.552Z,31.74
2019-05-06T12:03:15.318Z,31.44
2019-05-06T12:05:41.886Z,31.04
2019-05-06T12:08:08.548Z,30.74
2019-05-06T12:10:36.074Z,30.03
2019-05-06T12:13:02.896Z,27.89
2019-05-06T12:15:29.407Z,24.31
2019-05-06T12:17:55.768Z,22.47
2019-05-06T12:20:22.250Z,20.31
2019-05-06T12:22:48.752Z,18.33
2019-05-06T12:25:15.846Z,17.53
2019-05-06T12:27:45.564Z,14.58
2019-05-06T12:30:23.087Z,14.05
2019-05-06T12:32:49.786Z,15.50
2019-05-06T12:35:16.121Z,21.04
2019-05-06T12:37:44.529Z,23.66
2019-05-06T12:40:12.488Z,25.79
2019-05-06T12:42:43.801Z,26.84
2019-05-06T12:45:19.394Z,27.27
2019-05-06T12:47:53.360Z,29.53
2019-05-06T12:50:22.505Z,31.03
2019-05-06T12:52:48.595Z,30.82
2019-05-06T12:55:21.324Z,32.43
2019-05-06T12:57:44.611Z,32.46
2019-05-06T13:00:13.176Z,32.62
2019-05-06T13:02:40.348Z,33.02
2019-05-06T13:05:07.169Z,32.91
2019-05-06T13:07:46.938Z,33.36
2019-05-06T13:10:17.566Z,34.19
2019-05-06T13:12:45.857Z,33.42
2019-05-06T13:15:13.649Z,33.53
2019-05-06T13:17:42.394Z,33.97
2019-05-06T13:20:08.597Z,34.29
2019-05-06T13:22:53.367Z,33.36
2019-05-06T13:25:20.120Z,33.30
2019-05-06T13:27:47.343Z,32.23
2019-05-06T13:30:14.554Z,31.51
2019-05-06T13:32:45.770Z,31.15
2019-05-06T13:35:12.492Z,27.52
2019-05-06T13:37:39.126Z,27.36
2019-05-06T13:40:05.902Z,27.93
2019-05-06T13:42:34.242Z,27.87
2019-05-06T13:45:02.278Z,27.66
2019-05-06T13:47:44.093Z,26.33
2019-05-06T13:50:13.026Z,28.41
2019-05-06T13:52:42.523Z,27.24
2019-05-06T13:55:09.597Z,26.10
2019-05-06T13:57:39.042Z,25.11
2019-05-06T14:00:05.307Z,25.66
2019-05-06T14:02:35.474Z,24.48
2019-05-06T14:05:05.078Z,24.55
2019-05-06T14:07:34.443Z,21.60
2019-05-06T14:09:59.729Z,25.07
2019-05-06T14:12:27.075Z,23.99
2019-05-06T14:14:54.669Z,25.21
2019-05-06T14:17:22.454Z,24.37
2019-05-06T14:19:48.993Z,24.76
2019-05-06T14:22:15.335Z,27.34
2019-05-06T14:24:43.587Z,27.84
2019-05-06T14:27:11.528Z,28.59
2019-05-06T14:29:43.757Z,29.70
2019-05-06T14:32:12.325Z,29.84
2019-05-06T14:34:38.337Z,30.54
2019-05-06T14:37:04.966Z,29.56
2019-05-06T14:39:49.124Z,29.97
2019-05-06T14:42:04.222Z,30.01
2019-05-06T14:44:49.457Z,32.12
2019-05-06T14:47:15.765Z,32.42
2019-05-06T14:49:43.350Z,32.06
2019-05-06T14:52:09.996Z,31.95
2019-05-06T14:54:38.238Z,32.55
2019-05-06T14:57:13.003Z,32.15
2019-05-06T14:59:42.009Z,31.60
2019-05-06T15:02:07.782Z,32.46
2019-05-06T15:04:34.409Z,31.68
2019-05-06T15:07:02.138Z,32.11
2019-05-06T15:09:28.656Z,32.42
2019-05-06T15:11:55.090Z,32.87
2019-05-06T15:14:22.709Z,31.88
2019-05-06T15:16:49.737Z,31.00
2019-05-06T15:19:16.045Z,30.07
2019-05-06T15:21:42.926Z,31.54
2019-05-06T15:24:09.474Z,30.38
2019-05-06T15:26:35.818Z,29.70
2019-05-06T15:29:03.322Z,28.63
2019-05-06T15:31:34.676Z,28.48
2019-05-06T15:34:02.983Z,28.76
2019-05-06T15:36:34.587Z,29.54
2019-05-06T15:39:02.389Z,30.55
2019-05-06T15:41:31.961Z,31.47
2019-05-06T15:43:59.229Z,32.65
2019-05-06T15:46:25.822Z,33.22
2019-05-06T15:48:53.006Z,33.45
2019-05-06T15:51:22.302Z,34.04
2019-05-06T15:53:49.488Z,33.25
2019-05-06T15:56:15.854Z,33.88
2019-05-06T15:58:42.523Z,34.04
2019-05-06T16:01:09.150Z,33.24
2019-05-06T16:03:38.613Z,32.81
2019-05-06T16:06:05.347Z,31.98
2019-05-06T16:08:32.198Z,31.41
2019-05-06T16:10:59.148Z,29.66
2019-05-06T16:13:25.730Z,28.91
2019-05-06T16:15:53.187Z,29.09
2019-05-06T16:18:23.419Z,29.41
2019-05-06T16:20:50.148Z,30.14
2019-05-06T16:23:18.462Z,30.76
2019-05-06T16:25:45.056Z,29.79
2019-05-06T16:28:12.903Z,29.48
2019-05-06T16:30:39.628Z,30.10
2019-05-06T16:33:05.971Z,30.50
2019-05-06T16:35:33.504Z,31.28
2019-05-06T16:38:02.226Z,32.15
2019-05-06T16:40:28.457Z,32.77
2019-05-06T16:42:54.911Z,32.67
2019-05-06T16:45:23.478Z,32.38
2019-05-06T16:47:49.756Z,32.22
2019-05-06T16:50:17.250Z,32.77
2019-05-06T16:52:45.485Z,32.87
2019-05-06T16:55:16.425Z,33.77
2019-05-06T16:57:44.804Z,33.53
2019-05-06T17:00:13.520Z,33.64
2019-05-06T17:02:55.912Z,34.59
2019-05-06T17:05:33.679Z,34.10
2019-05-06T17:08:00.339Z,34.41
2019-05-06T17:10:26.701Z,34.45
2019-05-06T17:12:53.702Z,33.75
2019-05-06T17:15:20.248Z,34.02
2019-05-06T17:17:48.178Z,32.73
2019-05-06T17:20:14.891Z,30.25
2019-05-06T17:22:42.371Z,25.91
2019-05-06T17:25:10.081Z,23.62
2019-05-06T17:27:38.544Z,22.90
2019-05-06T17:30:15.926Z,23.29
2019-05-06T17:32:44.294Z,21.80
2019-05-06T17:35:12.594Z,22.68
2019-05-06T17:37:54.154Z,25.55
2019-05-06T17:40:22.949Z,26.52
2019-05-06T17:42:49.724Z,29.05
2019-05-06T17:45:35.116Z,28.46
2019-05-06T17:48:20.504Z,28.48
2019-05-06T17:51:05.544Z,30.88
2019-05-06T17:53:34.283Z,33.24
2019-05-06T17:56:01.829Z,34.21
2019-05-06T17:58:28.292Z,35.30
2019-05-06T18:00:55.441Z,35.81
2019-05-06T18:03:22.053Z,35.75
2019-05-06T18:05:48.394Z,35.48
2019-05-06T18:08:14.801Z,36.25
2019-05-06T18:10:42.684Z,36.11
2019-05-06T18:13:09.388Z,36.42
2019-05-06T18:15:35.717Z,36.45
2019-05-06T18:18:02.273Z,36.72
2019-05-06T18:20:28.922Z,37.18
2019-05-06T18:22:55.327Z,37.84
2019-05-06T18:25:23.030Z,37.74
2019-05-06T18:27:49.706Z,37.84
2019-05-06T18:30:24.085Z,38.16
2019-05-06T18:32:45.313Z,38.35
2019-05-06T18:35:13.102Z,39.03
2019-05-06T18:37:39.629Z,39.01
2019-05-06T18:40:06.226Z,39.30
2019-05-06T18:42:33.396Z,40.08
2019-05-06T18:44:59.822Z,40.00
2019-05-06T18:47:26.502Z,40.30
2019-05-06T18:49:52.864Z,40.76
2019-05-06T18:52:19.186Z,41.42
2019-05-06T18:54:52.288Z,41.87
2019-05-06T18:57:18.456Z,41.81
2019-05-06T18:59:45.309Z,42.14
2019-05-06T19:02:13.128Z,42.39
2019-05-06T19:04:42.055Z,42.84
2019-05-06T19:07:13.328Z,43.27
2019-05-06T19:09:39.044Z,43.23
2019-05-06T19:12:05.389Z,43.52
2019-05-06T19:14:32.939Z,43.66
2019-05-06T19:16:59.609Z,43.81
2019-05-06T19:19:25.932Z,43.93
2019-05-06T19:21:52.643Z,44.25
2019-05-06T19:24:19.214Z,44.78
2019-05-06T19:26:45.794Z,45.21
2019-05-06T19:29:12.349Z,45.70
2019-05-06T19:31:38.842Z,45.94
2019-05-06T19:34:05.521Z,46.23
2019-05-06T19:36:34.565Z,46.73
2019-05-06T19:39:02.283Z,47.65
2019-05-06T19:41:30.510Z,47.94
2019-05-06T19:43:57.513Z,48.46
2019-05-06T19:46:24.324Z,48.77
2019-05-06T19:48:52.442Z,49.02
2019-05-06T19:51:18.949Z,49.41
2019-05-06T19:53:45.273Z,49.46
2019-05-06T19:56:17.175Z,49.70
2019-05-06T19:58:43.537Z,49.94
2019-05-06T20:01:11.004Z,50.34
2019-05-06T20:03:37.670Z,50.84
2019-05-06T20:06:06.246Z,50.74
2019-05-06T20:08:34.518Z,51.21
2019-05-06T20:11:03.207Z,50.95
2019-05-06T20:13:29.611Z,51.26
2019-05-06T20:15:55.984Z,51.24
2019-05-06T20:18:22.333Z,51.37
2019-05-06T20:20:49.142Z,51.40
2019-05-06T20:23:15.784Z,51.33
2019-05-06T20:25:44.540Z,51.19
2019-05-06T20:28:10.350Z,51.14
2019-05-06T20:30:37.057Z,51.52
2019-05-06T20:33:04.908Z,51.46
2019-05-06T20:35:32.260Z,51.63
2019-05-06T20:37:58.822Z,51.81
2019-05-06T20:40:27.715Z,51.79
2019-05-06T20:42:54.529Z,51.84
2019-05-06T20:45:22.402Z,52.09
2019-05-06T20:47:48.808Z,52.13
2019-05-06T20:50:15.318Z,52.25
2019-05-06T20:52:42.463Z,52.59
2019-05-06T20:55:15.935Z,52.23
2019-05-06T20:57:38.704Z,52.43
2019-05-06T21:00:07.465Z,52.59
2019-05-06T21:02:35.714Z,52.65
2019-05-06T21:05:06.739Z,52.70
2019-05-06T21:07:34.277Z,52.66
2019-05-06T21:10:02.221Z,52.38
2019-05-06T21:12:29.813Z,52.76
2019-05-06T21:14:56.142Z,52.52
2019-05-06T21:17:22.985Z,52.61
2019-05-06T21:19:51.812Z,52.62
2019-05-06T21:22:17.885Z,52.61
2019-05-06T21:24:44.493Z,52.32
2019-05-06T21:27:12.366Z,52.73
2019-05-06T21:29:42.042Z,52.61
2019-05-06T21:32:08.423Z,52.96
2019-05-06T21:34:34.765Z,52.95
2019-05-06T21:37:02.832Z,53.22
2019-05-06T21:39:29.480Z,53.26
2019-05-06T21:41:57.384Z,53.10
2019-05-06T21:44:23.806Z,53.22
2019-05-06T21:46:50.139Z,53.59
2019-05-06T21:49:17.058Z,53.47
2019-05-06T21:51:43.760Z,53.47
2019-05-06T21:54:12.327Z,53.64
2019-05-06T21:56:38.777Z,53.93
2019-05-06T21:59:05.416Z,53.99
2019-05-06T22:01:33.037Z,53.93
2019-05-06T22:03:59.910Z,54.00
2019-05-06T22:06:26.466Z,54.06
2019-05-06T22:08:52.910Z,53.92
2019-05-06T22:11:19.545Z,54.31
2019-05-06T22:13:58.002Z,54.49
2019-05-06T22:16:14.502Z,54.45
2019-05-06T22:18:43.188Z,54.68
2019-05-06T22:21:11.399Z,54.78
2019-05-06T22:23:51.523Z,54.87
2019-05-06T22:26:18.306Z,55.15
2019-05-06T22:28:44.944Z,55.37
2019-05-06T22:31:11.250Z,55.36
2019-05-06T22:33:37.588Z,55.65
2019-05-06T22:36:03.942Z,55.46
2019-05-06T22:38:30.279Z,55.93
2019-05-06T22:40:56.881Z,55.87
2019-05-06T22:43:23.224Z,56.27
2019-05-06T22:45:49.553Z,56.08
2019-05-06T22:48:15.893Z,56.24
2019-05-06T22:50:42.478Z,56.36
2019-05-06T22:53:09.006Z,56.17
2019-05-06T22:55:35.712Z,56.19
2019-05-06T22:58:02.579Z,56.07
2019-05-06T23:00:33.089Z,56.34
2019-05-06T23:03:02.289Z,56.28
2019-05-06T23:05:32.468Z,56.72
2019-05-06T23:07:58.512Z,56.76
2019-05-06T23:10:24.998Z,56.40
2019-05-06T23:12:52.328Z,56.18
2019-05-06T23:15:18.987Z,56.31
2019-05-06T23:17:45.317Z,56.14
2019-05-06T23:20:12.133Z,56.06
2019-05-06T23:22:38.815Z,56.16
2019-05-06T23:25:05.453Z,56.37
2019-05-06T23:27:31.782Z,56.66
2019-05-06T23:29:58.137Z,56.46
2019-05-06T23:32:24.434Z,56.43
2019-05-06T23:34:52.349Z,56.94
2019-05-06T23:37:18.580Z,56.77
2019-05-06T23:40:42.952Z,56.86
2019-05-06T23:44:06.111Z,57.16
2019-05-06T23:47:29.489Z,57.92
2019-05-06T23:50:52.360Z,58.35
2019-05-06T23:54:15.043Z,58.74
2019-05-06T23:56:43.834Z,59.27
2019-05-06T23:59:16.512Z,59.60
